createdAt,value
2022-10-17T00:00:56.323Z,100.00
2022-10-17T00:04:11.319Z,100.00
2022-10-17T00:07:17.990Z,100.00
2022-10-17T00:10:24.890Z,100.00
2022-10-17T00:16:39.824Z,100.00
2022-10-17T00:19:46.515Z,100.00
2022-10-17T00:22:53.552Z,100.00
2022-10-17T00:26:05.999Z,100.00
2022-10-17T00:29:12.932Z,100.00
2022-10-17T00:32:20.090Z,100.00
2022-10-17T00:35:27.219Z,100.00
2022-10-17T00:38:33.830Z,100.00
2022-10-17T00:41:40.828Z,100.00
2022-10-17T00:45:22.647Z,100.00
2022-10-17T00:48:29.478Z,100.00
2022-10-17T00:51:41.992Z,100.00
2022-10-17T00:54:55.594Z,100.00
2022-10-17T00:58:06.230Z,100.00
2022-10-17T01:01:12.789Z,100.00
2022-10-17T01:04:20.340Z,100.00
2022-10-17T01:07:27.900Z,100.00
2022-10-17T01:10:41.718Z,100.00
2022-10-17T01:13:54.635Z,100.00
2022-10-17T01:17:10.837Z,100.00
2022-10-17T01:20:49.249Z,100.00
2022-10-17T01:24:38.817Z,100.00
2022-10-17T01:27:59.394Z,100.00
2022-10-17T01:31:14.029Z,100.00
2022-10-17T01:34:29.651Z,100.00
2022-10-17T01:37:43.596Z,100.00
2022-10-17T01:40:53.603Z,100.00
2022-10-17T01:44:06.369Z,100.00
2022-10-17T01:47:18.792Z,100.00
2022-10-17T01:50:29.743Z,100.00
2022-10-17T01:53:40.017Z,100.00
2022-10-17T01:56:49.819Z,100.00
2022-10-17T01:59:58.276Z,100.00
2022-10-17T02:03:08.774Z,100.00
2022-10-17T02:06:19.669Z,100.00
2022-10-17T02:09:28.260Z,100.00
2022-10-17T02:12:50.922Z,100.00
2022-10-17T02:16:08.233Z,100.00
2022-10-17T02:19:31.859Z,100.00
2022-10-17T02:22:48.767Z,100.00
2022-10-17T02:26:02.885Z,100.00
2022-10-17T02:29:16.012Z,100.00
2022-10-17T02:32:30.027Z,100.00
2022-10-17T02:35:42.244Z,100.00
2022-10-17T02:38:50.696Z,100.00
2022-10-17T02:41:59.926Z,100.00
2022-10-17T02:45:10.159Z,100.00
2022-10-17T02:48:23.570Z,100.00
2022-10-17T02:51:38.160Z,100.00
2022-10-17T02:54:48.965Z,100.00
2022-10-17T02:58:00.250Z,100.00
2022-10-17T03:01:07.486Z,100.00
2022-10-17T03:04:16.202Z,100.00
2022-10-17T03:07:22.727Z,100.00
2022-10-17T03:10:29.377Z,100.00
2022-10-17T03:13:39.015Z,100.00
2022-10-17T03:16:46.715Z,100.00
2022-10-17T03:19:53.841Z,100.00
2022-10-17T03:23:00.812Z,100.00
2022-10-17T03:26:08.614Z,100.00
2022-10-17T03:29:18.421Z,100.00
2022-10-17T03:32:27.981Z,100.00
2022-10-17T03:35:35.041Z,100.00
2022-10-17T03:38:42.904Z,100.00
2022-10-17T03:41:52.735Z,100.00
2022-10-17T03:45:00.039Z,100.00
2022-10-17T03:48:08.417Z,100.00
2022-10-17T03:51:16.673Z,100.00
2022-10-17T03:54:29.970Z,100.00
2022-10-17T03:57:42.154Z,100.00
2022-10-17T04:00:52.668Z,100.00
2022-10-17T04:03:59.325Z,100.00
2022-10-17T04:07:09.318Z,100.00
2022-10-17T04:10:17.974Z,100.00
2022-10-17T04:13:24.800Z,100.00
2022-10-17T04:16:31.994Z,100.00
2022-10-17T04:19:44.150Z,100.00
2022-10-17T04:22:50.730Z,100.00
2022-10-17T04:25:59.882Z,100.00
2022-10-17T04:29:05.931Z,100.00
2022-10-17T04:32:12.908Z,100.00
2022-10-17T04:35:29.521Z,100.00
2022-10-17T04:38:41.574Z,100.00
2022-10-17T04:41:50.398Z,100.00
2022-10-17T04:44:57.003Z,100.00
2022-10-17T04:48:04.743Z,100.00
2022-10-17T04:51:15.898Z,100.00
2022-10-17T04:54:49.390Z,100.00
2022-10-17T04:57:58.045Z,100.00
2022-10-17T05:01:11.907Z,100.00
2022-10-17T05:04:23.920Z,100.00
2022-10-17T05:07:32.188Z,100.00
2022-10-17T05:10:51.236Z,100.00
2022-10-17T05:14:00.420Z,100.00
2022-10-17T05:17:07.191Z,100.00
2022-10-17T05:20:16.508Z,100.00
2022-10-17T05:23:23.344Z,100.00
2022-10-17T05:26:30.419Z,100.00
2022-10-17T05:29:39.190Z,100.00
2022-10-17T05:32:55.599Z,100.00
2022-10-17T05:36:02.995Z,100.00
2022-10-17T05:39:09.919Z,100.00
2022-10-17T05:42:17.220Z,100.00
2022-10-17T05:45:23.986Z,100.00
2022-10-17T05:48:30.749Z,100.00
2022-10-17T05:54:49.936Z,100.00
2022-10-17T05:57:56.741Z,100.00
2022-10-17T06:01:08.228Z,100.00
2022-10-17T06:04:17.547Z,100.00
2022-10-17T06:07:24.328Z,100.00
2022-10-17T06:10:31.762Z,100.00
2022-10-17T06:13:39.280Z,100.00
2022-10-17T06:16:51.687Z,100.00
2022-10-17T06:19:58.596Z,100.00
2022-10-17T06:23:07.905Z,100.00
2022-10-17T06:26:28.126Z,100.00
2022-10-17T06:29:35.074Z,100.00
2022-10-17T06:32:41.983Z,100.00
2022-10-17T06:35:55.813Z,100.00
2022-10-17T06:39:03.751Z,100.00
2022-10-17T06:42:16.176Z,100.00
2022-10-17T06:45:48.541Z,100.00
2022-10-17T06:48:58.541Z,100.00
2022-10-17T06:52:28.905Z,100.00
2022-10-17T06:56:03.098Z,100.00
2022-10-17T06:59:38.901Z,100.00
2022-10-17T07:02:54.662Z,100.00
2022-10-17T07:06:01.650Z,100.00
2022-10-17T07:09:09.606Z,100.00
2022-10-17T07:12:17.107Z,100.00
2022-10-17T07:15:25.135Z,100.00
2022-10-17T07:18:31.793Z,100.00
2022-10-17T07:21:39.351Z,100.00
2022-10-17T07:24:47.644Z,100.00
2022-10-17T07:27:59.791Z,100.00
2022-10-17T07:31:10.606Z,100.00
2022-10-17T07:34:17.449Z,100.00
2022-10-17T07:37:24.623Z,100.00
2022-10-17T07:40:34.875Z,100.00
2022-10-17T07:43:43.041Z,100.00
2022-10-17T07:46:50.308Z,100.00
2022-10-17T07:49:57.879Z,100.00
2022-10-17T07:53:04.598Z,100.00
2022-10-17T07:56:12.469Z,100.00
2022-10-17T07:59:20.125Z,100.00
2022-10-17T08:02:28.771Z,100.00
2022-10-17T08:05:36.528Z,100.00
2022-10-17T08:08:43.752Z,100.00
2022-10-17T08:11:50.679Z,100.00
2022-10-17T08:14:57.256Z,100.00
2022-10-17T08:18:03.914Z,100.00
2022-10-17T08:21:11.262Z,100.00
2022-10-17T08:24:17.969Z,100.00
2022-10-17T08:27:25.580Z,100.00
2022-10-17T08:30:32.499Z,100.00
2022-10-17T08:33:39.789Z,100.00
2022-10-17T08:36:46.532Z,99.96
2022-10-17T08:39:53.070Z,99.77
2022-10-17T08:43:11.922Z,99.13
2022-10-17T08:46:19.644Z,99.13
2022-10-17T08:49:34.986Z,98.17
2022-10-17T08:52:50.743Z,97.42
2022-10-17T08:55:58.952Z,96.69
2022-10-17T08:59:12.409Z,95.79
2022-10-17T09:02:32.578Z,95.03
2022-10-17T09:05:49.425Z,94.99
2022-10-17T09:09:11.215Z,93.93
2022-10-17T09:12:23.314Z,93.92
2022-10-17T09:15:49.386Z,93.75
2022-10-17T09:19:05.136Z,93.06
2022-10-17T09:22:18.044Z,92.60
2022-10-17T09:25:25.040Z,91.00
2022-10-17T09:28:35.261Z,89.90
2022-10-17T09:31:48.470Z,89.54
2022-10-17T09:34:55.809Z,89.07
2022-10-17T09:38:02.555Z,88.27
2022-10-17T09:41:43.146Z,88.14
2022-10-17T09:44:51.792Z,86.56
2022-10-17T09:48:07.145Z,86.06
2022-10-17T09:51:25.754Z,85.40
2022-10-17T09:54:42.686Z,84.40
2022-10-17T09:57:58.203Z,84.33
2022-10-17T10:01:23.725Z,82.77
2022-10-17T10:04:41.538Z,80.85
2022-10-17T10:08:07.656Z,79.46
2022-10-17T10:11:15.152Z,78.48
2022-10-17T10:14:25.284Z,77.48
2022-10-17T10:17:38.271Z,76.79
2022-10-17T10:20:46.918Z,74.84
2022-10-17T10:24:15.539Z,73.69
2022-10-17T10:27:23.076Z,69.75
2022-10-17T10:30:36.131Z,68.76
2022-10-17T10:33:50.525Z,68.72
2022-10-17T10:37:03.766Z,67.62
2022-10-17T10:40:21.193Z,67.01
2022-10-17T10:43:34.330Z,67.00
2022-10-17T10:46:43.741Z,67.26
2022-10-17T10:49:51.469Z,66.89
2022-10-17T10:53:10.982Z,65.28
2022-10-17T10:56:21.668Z,64.23
2022-10-17T10:59:37.037Z,64.87
2022-10-17T11:02:54.213Z,64.53
2022-10-17T11:06:06.533Z,64.32
2022-10-17T11:09:28.826Z,63.36
2022-10-17T11:16:00.280Z,60.26
2022-10-17T11:19:14.683Z,59.48
2022-10-17T11:22:29.304Z,58.74
2022-10-17T11:25:38.792Z,58.14
2022-10-17T11:28:45.739Z,58.77
2022-10-17T11:31:58.238Z,58.27
2022-10-17T11:35:09.239Z,57.96
2022-10-17T11:38:22.010Z,57.51
2022-10-17T11:41:35.261Z,57.72
2022-10-17T11:44:42.829Z,57.65
2022-10-17T11:47:51.916Z,57.08
2022-10-17T11:54:38.860Z,55.95
2022-10-17T11:57:53.599Z,55.75
2022-10-17T12:01:08.329Z,56.13
2022-10-17T12:04:25.463Z,55.03
2022-10-17T12:07:39.479Z,53.39
2022-10-17T12:10:53.400Z,53.87
2022-10-17T12:14:04.926Z,53.90
2022-10-17T12:17:33.102Z,53.28
2022-10-17T12:20:41.450Z,52.89
2022-10-17T12:23:55.437Z,52.70
2022-10-17T12:27:31.812Z,52.81
2022-10-17T12:30:50.418Z,52.11
2022-10-17T12:34:00.086Z,50.83
2022-10-17T12:37:15.103Z,51.56
2022-10-17T12:40:58.700Z,51.46
2022-10-17T12:44:39.371Z,50.97
2022-10-17T12:47:47.167Z,49.98
2022-10-17T12:51:30.815Z,50.18
2022-10-17T12:54:37.950Z,49.58
2022-10-17T12:57:58.714Z,49.50
2022-10-17T13:01:23.547Z,49.08
2022-10-17T13:04:32.218Z,48.84
2022-10-17T13:07:42.121Z,48.70
2022-10-17T13:10:52.554Z,48.74
2022-10-17T13:14:02.658Z,48.07
2022-10-17T13:17:27.696Z,47.80
2022-10-17T13:20:35.071Z,48.58
2022-10-17T13:23:41.828Z,48.77
2022-10-17T13:26:48.809Z,48.89
2022-10-17T13:29:57.408Z,48.77
2022-10-17T13:33:04.952Z,48.11
2022-10-17T13:36:19.259Z,48.43
2022-10-17T13:39:44.932Z,49.21
2022-10-17T13:42:53.655Z,48.80
2022-10-17T13:46:32.526Z,49.18
2022-10-17T13:49:36.297Z,47.76
2022-10-17T13:52:43.078Z,47.80
2022-10-17T13:56:27.882Z,48.32
2022-10-17T13:59:33.679Z,48.72
2022-10-17T14:02:41.842Z,48.50
2022-10-17T14:06:12.359Z,48.42
2022-10-17T14:09:24.638Z,49.00
2022-10-17T14:12:31.398Z,49.19
2022-10-17T14:15:39.083Z,49.43
2022-10-17T14:18:50.763Z,49.79
2022-10-17T14:22:15.878Z,50.51
2022-10-17T14:25:35.769Z,50.78
2022-10-17T14:28:44.523Z,50.89
2022-10-17T14:31:53.631Z,51.43
2022-10-17T14:35:18.886Z,51.77
2022-10-17T14:38:31.410Z,51.99
2022-10-17T14:41:44.032Z,52.61
2022-10-17T14:44:55.455Z,53.02
2022-10-17T14:48:10.977Z,53.53
2022-10-17T14:51:19.777Z,53.70
2022-10-17T14:54:29.196Z,53.69
2022-10-17T14:57:46.453Z,54.14
2022-10-17T15:00:53.129Z,54.32
2022-10-17T15:03:59.747Z,54.86
2022-10-17T15:07:06.974Z,55.10
2022-10-17T15:10:27.096Z,55.62
2022-10-17T15:13:40.088Z,55.97
2022-10-17T15:16:49.357Z,56.56
2022-10-17T15:19:56.503Z,56.97
2022-10-17T15:23:04.130Z,57.63
2022-10-17T15:26:16.641Z,58.13
2022-10-17T15:29:23.304Z,58.67
2022-10-17T15:32:30.041Z,59.27
2022-10-17T15:35:37.704Z,59.99
2022-10-17T15:38:44.244Z,60.63
2022-10-17T15:41:50.993Z,61.21
2022-10-17T15:44:58.472Z,61.92
2022-10-17T15:48:08.592Z,62.56
2022-10-17T15:51:15.489Z,63.35
2022-10-17T15:54:22.345Z,63.96
2022-10-17T15:57:32.376Z,64.63
2022-10-17T16:00:41.591Z,65.64
2022-10-17T16:03:50.343Z,65.99
2022-10-17T16:06:57.020Z,66.68
2022-10-17T16:10:03.711Z,67.26
2022-10-17T16:13:19.359Z,67.56
2022-10-17T16:16:26.028Z,67.87
2022-10-17T16:19:32.884Z,68.28
2022-10-17T16:22:41.754Z,68.92
2022-10-17T16:25:47.130Z,69.38
2022-10-17T16:28:55.025Z,69.76
2022-10-17T16:32:01.697Z,70.07
2022-10-17T16:35:10.100Z,70.34
2022-10-17T16:38:16.690Z,70.75
2022-10-17T16:41:26.257Z,71.33
2022-10-17T16:44:32.893Z,71.67
2022-10-17T16:47:39.537Z,71.99
2022-10-17T16:50:46.078Z,72.58
2022-10-17T16:53:56.706Z,72.87
2022-10-17T16:57:03.794Z,73.29
2022-10-17T17:00:14.096Z,73.92
2022-10-17T17:03:20.769Z,74.21
2022-10-17T17:06:29.109Z,74.76
2022-10-17T17:09:35.694Z,75.08
2022-10-17T17:12:42.393Z,75.72
2022-10-17T17:15:53.617Z,76.11
2022-10-17T17:19:04.720Z,76.55
2022-10-17T17:22:11.244Z,77.18
2022-10-17T17:25:17.956Z,77.32
2022-10-17T17:28:28.799Z,77.95
2022-10-17T17:31:39.012Z,78.63
2022-10-17T17:34:45.691Z,78.99
2022-10-17T17:37:52.326Z,79.37
2022-10-17T17:40:59.462Z,79.82
2022-10-17T17:44:09.212Z,80.27
2022-10-17T17:47:17.937Z,80.66
2022-10-17T17:50:24.721Z,81.13
2022-10-17T17:53:31.386Z,81.76
2022-10-17T17:56:38.164Z,82.22
2022-10-17T17:59:45.179Z,82.69
2022-10-17T18:02:53.917Z,83.01
2022-10-17T18:06:00.572Z,83.24
2022-10-17T18:09:08.238Z,83.58
2022-10-17T18:12:15.086Z,84.02
2022-10-17T18:15:21.984Z,84.23
2022-10-17T18:18:31.500Z,84.40
2022-10-17T18:21:38.656Z,84.50
2022-10-17T18:24:45.504Z,84.69
2022-10-17T18:27:52.255Z,84.90
2022-10-17T18:30:59.318Z,85.02
2022-10-17T18:34:09.606Z,85.27
2022-10-17T18:37:16.328Z,85.55
2022-10-17T18:40:22.974Z,85.72
2022-10-17T18:43:29.733Z,85.79
2022-10-17T18:46:41.009Z,85.99
2022-10-17T18:49:48.684Z,86.17
2022-10-17T18:52:55.337Z,86.64
2022-10-17T18:56:03.447Z,86.73
2022-10-17T18:59:10.484Z,86.95
2022-10-17T19:02:17.244Z,87.00
2022-10-17T19:05:23.903Z,87.04
2022-10-17T19:08:30.586Z,87.25
2022-10-17T19:11:39.062Z,87.45
2022-10-17T19:14:45.742Z,87.53
2022-10-17T19:17:52.380Z,88.03
2022-10-17T19:21:05.959Z,88.16
2022-10-17T19:24:15.839Z,88.38
2022-10-17T19:27:22.565Z,88.61
2022-10-17T19:30:29.171Z,88.47
2022-10-17T19:33:36.571Z,88.57
2022-10-17T19:36:43.838Z,88.73
2022-10-17T19:39:50.786Z,89.00
2022-10-17T19:42:57.463Z,88.76
2022-10-17T19:46:06.416Z,88.88
2022-10-17T19:49:14.621Z,88.92
2022-10-17T19:52:21.381Z,88.72
2022-10-17T19:55:28.161Z,88.63
2022-10-17T19:58:43.770Z,88.52
2022-10-17T20:01:50.567Z,88.31
2022-10-17T20:05:13.971Z,88.37
2022-10-17T20:11:36.108Z,88.61
2022-10-17T20:14:42.815Z,89.05
2022-10-17T20:17:49.404Z,89.12
2022-10-17T20:20:56.782Z,89.36
2022-10-17T20:24:06.002Z,89.64
2022-10-17T20:27:11.201Z,89.63
2022-10-17T20:30:18.029Z,89.60
2022-10-17T20:33:27.309Z,89.56
2022-10-17T20:36:37.599Z,89.80
2022-10-17T20:39:45.184Z,90.13
2022-10-17T20:42:51.653Z,90.31
2022-10-17T20:46:04.606Z,90.51
2022-10-17T20:49:18.705Z,90.83
2022-10-17T20:52:25.372Z,91.07
2022-10-17T20:55:32.848Z,91.53
2022-10-17T20:58:39.751Z,91.89
2022-10-17T21:01:47.650Z,92.10
2022-10-17T21:04:54.424Z,92.39
2022-10-17T21:08:02.764Z,92.53
2022-10-17T21:11:14.867Z,92.82
2022-10-17T21:14:21.624Z,93.01
2022-10-17T21:17:28.695Z,93.25
2022-10-17T21:20:35.303Z,93.57
2022-10-17T21:23:42.993Z,93.92
2022-10-17T21:26:55.298Z,94.07
2022-10-17T21:30:05.312Z,94.47
2022-10-17T21:33:11.944Z,94.84
2022-10-17T21:36:19.260Z,95.05
2022-10-17T21:39:26.080Z,94.95
2022-10-17T21:42:33.078Z,95.22
2022-10-17T21:45:40.253Z,95.50
2022-10-17T21:48:48.816Z,95.72
2022-10-17T21:51:55.516Z,95.87
2022-10-17T21:55:02.129Z,95.95
2022-10-17T21:58:08.640Z,96.35
2022-10-17T22:01:17.506Z,96.58
2022-10-17T22:04:24.084Z,96.91
2022-10-17T22:07:30.797Z,97.20
2022-10-17T22:10:40.994Z,97.28
2022-10-17T22:13:48.083Z,97.53
2022-10-17T22:16:55.528Z,97.59
2022-10-17T22:20:04.151Z,97.87
2022-10-17T22:23:10.777Z,98.13
2022-10-17T22:26:17.861Z,98.19
2022-10-17T22:29:24.692Z,98.32
2022-10-17T22:32:31.359Z,98.45
2022-10-17T22:35:38.297Z,98.46
2022-10-17T22:38:44.934Z,98.64
2022-10-17T22:41:51.533Z,98.77
2022-10-17T22:44:58.305Z,98.72
2022-10-17T22:48:05.195Z,98.89
2022-10-17T22:51:12.355Z,99.02
2022-10-17T22:54:20.127Z,99.30
2022-10-17T22:57:26.746Z,99.42
2022-10-17T23:00:33.347Z,99.52
2022-10-17T23:03:40.014Z,99.42
2022-10-17T23:06:46.806Z,99.33
2022-10-17T23:09:53.768Z,99.52
2022-10-17T23:13:00.570Z,99.40
2022-10-17T23:16:07.986Z,99.49
2022-10-17T23:19:14.581Z,99.92
2022-10-17T23:22:21.314Z,100.00
2022-10-17T23:25:28.365Z,100.00
2022-10-17T23:28:35.760Z,100.00
2022-10-17T23:31:42.776Z,100.00
2022-10-17T23:34:49.758Z,100.00
2022-10-17T23:37:56.482Z,100.00
2022-10-17T23:41:06.903Z,100.00
2022-10-17T23:44:14.104Z,100.00
2022-10-17T23:47:21.151Z,100.00
2022-10-17T23:50:27.960Z,100.00
2022-10-17T23:53:34.921Z,100.00
2022-10-17T23:56:43.726Z,100.00
2022-10-17T23:59:50.547Z,100.00
